createdAt,value
2023-03-06T00:01:41.112Z,15.00
2023-03-06T00:04:44.248Z,12.90
2023-03-06T00:07:47.285Z,12.47
2023-03-06T00:10:50.482Z,10.80
2023-03-06T00:13:53.368Z,11.60
2023-03-06T00:16:56.731Z,12.23
2023-03-06T00:19:59.477Z,14.63
2023-03-06T00:23:03.013Z,11.80
2023-03-06T00:26:08.464Z,13.25
2023-03-06T00:29:11.850Z,14.63
2023-03-06T00:32:14.596Z,11.73
2023-03-06T00:35:17.866Z,12.65
2023-03-06T00:38:20.565Z,14.53
2023-03-06T00:41:25.294Z,11.52
2023-03-06T00:44:28.040Z,11.32
2023-03-06T00:47:31.221Z,13.73
2023-03-06T00:50:35.464Z,12.02
2023-03-06T00:53:38.470Z,11.67
2023-03-06T00:56:41.206Z,10.73
2023-03-06T00:59:44.406Z,12.02
2023-03-06T01:02:47.170Z,8.23
2023-03-06T01:05:50.203Z,9.35
2023-03-06T01:08:52.869Z,9.17
2023-03-06T01:11:56.537Z,9.30
2023-03-06T01:14:59.199Z,10.05
2023-03-06T01:18:02.431Z,11.50
2023-03-06T01:21:06.159Z,12.07
2023-03-06T01:24:10.377Z,12.20
2023-03-06T01:27:13.050Z,9.15
2023-03-06T01:30:16.203Z,16.27
2023-03-06T01:33:18.974Z,11.10
2023-03-06T01:36:22.016Z,14.23
2023-03-06T01:39:25.240Z,16.03
2023-03-06T01:42:28.388Z,12.18
2023-03-06T01:45:31.117Z,9.80
2023-03-06T01:48:34.352Z,9.07
2023-03-06T01:51:41.455Z,7.60
2023-03-06T01:54:55.285Z,10.50
2023-03-06T01:58:00.917Z,9.38
2023-03-06T02:01:04.082Z,10.80
2023-03-06T02:04:07.500Z,9.63
2023-03-06T02:07:11.250Z,9.73
2023-03-06T02:10:16.105Z,10.47
2023-03-06T02:13:20.283Z,7.82
2023-03-06T02:16:31.070Z,9.07
2023-03-06T02:19:51.742Z,7.75
2023-03-06T02:23:05.235Z,9.05
2023-03-06T02:26:09.802Z,7.83
2023-03-06T02:29:12.990Z,7.18
2023-03-06T02:32:16.063Z,12.57
2023-03-06T02:35:23.843Z,9.40
2023-03-06T02:38:34.602Z,8.05
2023-03-06T02:41:37.800Z,8.00
2023-03-06T02:44:40.923Z,8.27
2023-03-06T02:47:43.914Z,8.25
2023-03-06T02:50:47.803Z,8.63
2023-03-06T02:53:51.272Z,9.30
2023-03-06T02:56:54.085Z,20.80
2023-03-06T02:59:58.096Z,15.90
2023-03-06T03:03:01.785Z,140.18
2023-03-06T03:06:06.489Z,48.80
2023-03-06T03:09:09.438Z,20.35
2023-03-06T03:12:12.725Z,11.53
2023-03-06T03:15:15.486Z,10.32
2023-03-06T03:18:18.714Z,10.82
2023-03-06T03:21:21.618Z,10.18
2023-03-06T03:24:25.384Z,11.03
2023-03-06T03:27:28.146Z,18.63
2023-03-06T03:30:31.583Z,18.27
2023-03-06T03:33:34.640Z,14.13
2023-03-06T03:36:37.826Z,11.05
2023-03-06T03:39:42.070Z,10.43
2023-03-06T03:42:46.170Z,10.00
2023-03-06T03:45:49.223Z,8.73
2023-03-06T03:48:53.166Z,9.85
2023-03-06T03:51:57.358Z,10.07
2023-03-06T03:55:01.208Z,10.93
2023-03-06T03:58:04.892Z,9.53
2023-03-06T04:01:08.409Z,10.82
2023-03-06T04:04:13.297Z,9.75
2023-03-06T04:07:16.630Z,10.18
2023-03-06T04:10:19.839Z,8.83
2023-03-06T04:13:23.212Z,10.23
2023-03-06T04:16:26.607Z,10.25
2023-03-06T04:19:29.492Z,10.23
2023-03-06T04:22:33.421Z,9.02
2023-03-06T04:25:36.581Z,11.00
2023-03-06T04:28:41.813Z,10.07
2023-03-06T04:31:44.949Z,11.88
2023-03-06T04:34:48.581Z,17.20
2023-03-06T04:37:52.391Z,10.63
2023-03-06T04:40:56.409Z,9.00
2023-03-06T04:43:59.690Z,10.38
2023-03-06T04:47:03.121Z,11.30
2023-03-06T04:50:06.389Z,11.85
2023-03-06T04:53:09.816Z,10.00
2023-03-06T04:56:12.558Z,12.60
2023-03-06T04:59:15.709Z,10.00
2023-03-06T05:02:18.920Z,11.40
2023-03-06T05:05:22.048Z,10.02
2023-03-06T05:08:24.803Z,11.90
2023-03-06T05:11:28.106Z,11.83
2023-03-06T05:14:31.654Z,13.35
2023-03-06T05:17:34.904Z,12.43
2023-03-06T05:20:38.085Z,12.18
2023-03-06T05:23:41.253Z,11.30
2023-03-06T05:26:43.997Z,9.30
2023-03-06T05:29:47.193Z,12.95
2023-03-06T05:32:50.562Z,16.33
2023-03-06T05:35:53.796Z,13.70
2023-03-06T05:38:56.465Z,13.00
2023-03-06T05:41:59.692Z,13.00
2023-03-06T05:45:05.777Z,13.10
2023-03-06T05:48:13.740Z,9.15
2023-03-06T05:51:16.574Z,15.32
2023-03-06T05:54:19.709Z,15.20
2023-03-06T05:57:23.968Z,18.08
2023-03-06T06:00:27.064Z,13.27
2023-03-06T06:03:30.478Z,13.05
2023-03-06T06:06:33.211Z,108.25
2023-03-06T06:09:36.285Z,32.83
2023-03-06T06:12:39.201Z,32.80
2023-03-06T06:15:42.357Z,20.77
2023-03-06T06:18:45.774Z,17.73
2023-03-06T06:21:51.237Z,15.27
2023-03-06T06:24:54.033Z,19.17
2023-03-06T06:27:58.035Z,16.17
2023-03-06T06:31:00.878Z,16.33
2023-03-06T06:34:05.865Z,28.12
2023-03-06T06:37:08.722Z,26.77
2023-03-06T06:40:12.653Z,42.90
2023-03-06T06:43:15.471Z,31.17
2023-03-06T06:46:53.330Z,24.17
2023-03-06T06:49:41.853Z,18.92
2023-03-06T06:52:44.884Z,23.42
2023-03-06T06:55:47.645Z,30.93
2023-03-06T06:58:59.118Z,17.00
2023-03-06T07:02:06.630Z,16.30
2023-03-06T07:05:10.944Z,18.23
2023-03-06T07:08:13.734Z,18.33
2023-03-06T07:11:19.161Z,15.93
2023-03-06T07:14:21.903Z,20.50
2023-03-06T07:17:25.044Z,16.65
2023-03-06T07:20:27.817Z,14.00
2023-03-06T07:23:31.219Z,18.75
2023-03-06T07:26:35.043Z,13.87
2023-03-06T07:29:38.141Z,14.83
2023-03-06T07:32:41.000Z,14.60
2023-03-06T07:35:44.717Z,15.82
2023-03-06T07:38:47.542Z,18.67
2023-03-06T07:41:52.561Z,21.03
2023-03-06T07:44:55.726Z,18.47
2023-03-06T07:47:58.887Z,33.50
2023-03-06T07:51:05.410Z,28.23
2023-03-06T07:54:08.623Z,18.60
2023-03-06T07:57:11.261Z,22.10
2023-03-06T08:00:15.889Z,14.73
2023-03-06T08:03:19.207Z,14.32
2023-03-06T08:06:25.347Z,13.68
2023-03-06T08:09:28.640Z,17.23
2023-03-06T08:12:34.457Z,14.53
2023-03-06T08:15:37.504Z,16.70
2023-03-06T08:18:40.500Z,15.20
2023-03-06T08:21:43.567Z,13.05
2023-03-06T08:24:46.366Z,14.15
2023-03-06T08:27:49.547Z,13.03
2023-03-06T08:30:52.425Z,12.93
2023-03-06T08:33:57.185Z,15.02
2023-03-06T08:36:59.936Z,15.48
2023-03-06T08:40:04.903Z,12.77
2023-03-06T08:43:12.984Z,16.87
2023-03-06T08:46:19.095Z,17.57
2023-03-06T08:49:22.164Z,15.00
2023-03-06T08:52:25.287Z,18.85
2023-03-06T08:55:28.499Z,13.95
2023-03-06T08:58:32.153Z,15.90
2023-03-06T09:01:37.848Z,15.50
2023-03-06T09:04:41.603Z,33.47
2023-03-06T09:07:44.316Z,20.20
2023-03-06T09:10:49.193Z,13.57
2023-03-06T09:13:52.848Z,14.67
2023-03-06T09:16:56.022Z,9.13
2023-03-06T09:19:59.333Z,11.63
2023-03-06T09:23:02.391Z,14.87
2023-03-06T09:26:06.694Z,11.77
2023-03-06T09:29:09.690Z,14.77
2023-03-06T09:32:12.480Z,13.47
2023-03-06T09:35:15.634Z,15.45
2023-03-06T09:38:19.293Z,12.23
2023-03-06T09:41:32.911Z,11.50
2023-03-06T09:44:37.293Z,13.90
2023-03-06T09:47:56.734Z,9.60
2023-03-06T09:51:07.913Z,18.80
2023-03-06T09:54:15.460Z,12.77
2023-03-06T09:57:31.063Z,14.75
2023-03-06T10:00:38.889Z,14.60
2023-03-06T10:04:03.939Z,17.47
2023-03-06T10:07:13.295Z,23.27
2023-03-06T10:10:34.447Z,13.55
2023-03-06T10:13:38.982Z,15.00
2023-03-06T10:16:42.282Z,13.13
2023-03-06T10:19:47.846Z,13.97
2023-03-06T10:23:25.000Z,14.00
2023-03-06T10:26:37.914Z,18.48
2023-03-06T10:30:06.741Z,32.53
2023-03-06T10:33:47.895Z,12.97
2023-03-06T10:36:51.469Z,26.30
2023-03-06T10:40:14.247Z,13.30
2023-03-06T10:43:17.435Z,13.70
2023-03-06T10:46:37.882Z,15.65
2023-03-06T10:49:41.351Z,13.77
2023-03-06T10:52:44.023Z,12.63
2023-03-06T10:55:59.161Z,15.52
2023-03-06T10:59:25.681Z,16.98
2023-03-06T11:02:37.418Z,14.25
2023-03-06T11:05:40.184Z,13.70
2023-03-06T11:08:44.684Z,18.03
2023-03-06T11:11:48.601Z,11.23
2023-03-06T11:15:10.629Z,8.65
2023-03-06T11:18:13.366Z,15.52
2023-03-06T11:21:32.029Z,13.50
2023-03-06T11:24:42.747Z,16.90
2023-03-06T11:27:52.944Z,19.25
2023-03-06T11:31:11.000Z,20.52
2023-03-06T11:34:51.789Z,8.32
2023-03-06T11:37:59.400Z,20.83
2023-03-06T11:41:11.826Z,16.07
2023-03-06T11:44:26.547Z,16.50
2023-03-06T11:47:35.288Z,11.93
2023-03-06T11:50:46.908Z,15.05
2023-03-06T11:53:50.013Z,12.10
2023-03-06T11:57:19.023Z,14.23
2023-03-06T12:00:33.131Z,12.13
2023-03-06T12:03:51.532Z,15.00
2023-03-06T12:07:15.310Z,16.77
2023-03-06T12:10:28.336Z,20.20
2023-03-06T12:17:05.867Z,24.00
2023-03-06T12:20:20.079Z,16.77
2023-03-06T12:23:28.980Z,16.15
2023-03-06T12:26:46.943Z,13.10
2023-03-06T12:30:29.008Z,18.60
2023-03-06T12:33:41.222Z,13.38
2023-03-06T12:37:16.752Z,7.90
2023-03-06T12:41:10.856Z,11.43
2023-03-06T12:44:25.888Z,19.00
2023-03-06T12:47:31.582Z,20.00
2023-03-06T12:50:39.014Z,16.98
2023-03-06T12:53:42.731Z,11.60
2023-03-06T12:56:47.448Z,19.40
2023-03-06T12:59:50.559Z,21.70
2023-03-06T13:03:15.291Z,33.13
2023-03-06T13:06:49.855Z,21.90
2023-03-06T13:10:23.518Z,19.40
2023-03-06T13:13:33.069Z,18.25
2023-03-06T13:16:36.349Z,20.40
2023-03-06T13:19:39.092Z,18.47
2023-03-06T13:22:47.535Z,18.45
2023-03-06T13:25:51.084Z,14.95
2023-03-06T13:28:58.438Z,20.83
2023-03-06T13:32:01.345Z,23.47
2023-03-06T13:35:30.775Z,20.13
2023-03-06T13:38:37.541Z,20.62
2023-03-06T13:41:57.425Z,20.83
2023-03-06T13:45:14.327Z,20.30
2023-03-06T13:48:44.097Z,30.60
2023-03-06T13:51:54.487Z,18.20
2023-03-06T13:55:09.558Z,16.30
2023-03-06T13:58:45.875Z,17.42
2023-03-06T14:01:48.872Z,15.48
2023-03-06T14:05:00.164Z,18.67
2023-03-06T14:08:10.491Z,21.10
2023-03-06T14:11:21.439Z,21.65
2023-03-06T14:14:32.692Z,17.48
2023-03-06T14:17:39.358Z,18.15
2023-03-06T14:21:00.212Z,29.03
2023-03-06T14:24:05.040Z,19.87
2023-03-06T14:27:09.343Z,16.45
2023-03-06T14:30:21.201Z,23.75
2023-03-06T14:33:33.924Z,21.40
2023-03-06T14:36:42.875Z,18.13
2023-03-06T14:39:46.947Z,25.83
2023-03-06T14:42:50.045Z,20.92
2023-03-06T14:45:58.728Z,17.58
2023-03-06T14:49:01.890Z,19.70
2023-03-06T14:52:04.747Z,26.93
2023-03-06T14:55:18.122Z,23.20
2023-03-06T14:58:28.217Z,23.33
2023-03-06T15:01:43.248Z,16.87
2023-03-06T15:04:49.740Z,22.92
2023-03-06T15:07:55.857Z,24.17
2023-03-06T15:11:01.668Z,25.47
2023-03-06T15:14:05.680Z,21.85
2023-03-06T15:17:17.729Z,23.50
2023-03-06T15:20:43.758Z,43.95
2023-03-06T15:23:49.933Z,29.17
2023-03-06T15:26:55.472Z,35.93
2023-03-06T15:30:23.423Z,36.65
2023-03-06T15:33:26.858Z,26.35
2023-03-06T15:36:35.031Z,25.52
2023-03-06T15:39:40.603Z,30.13
2023-03-06T15:42:43.537Z,27.67
2023-03-06T15:45:46.678Z,23.62
2023-03-06T15:48:53.202Z,23.70
2023-03-06T15:51:56.454Z,27.37
2023-03-06T15:54:59.525Z,28.77
2023-03-06T15:58:04.850Z,26.10
2023-03-06T16:01:08.462Z,27.77
2023-03-06T16:04:11.708Z,22.90
2023-03-06T16:07:15.442Z,22.02
2023-03-06T16:10:24.371Z,21.83
2023-03-06T16:13:29.266Z,25.43
2023-03-06T16:16:38.094Z,27.37
2023-03-06T16:19:41.723Z,26.17
2023-03-06T16:22:46.589Z,25.98
2023-03-06T16:25:50.593Z,23.27
2023-03-06T16:28:54.027Z,24.57
2023-03-06T16:31:58.857Z,31.42
2023-03-06T16:35:02.342Z,42.83
2023-03-06T16:38:06.578Z,35.17
2023-03-06T16:41:10.141Z,32.67
2023-03-06T16:44:13.850Z,28.10
2023-03-06T16:47:18.108Z,28.33
2023-03-06T16:50:28.935Z,28.70
2023-03-06T16:53:32.851Z,29.63
2023-03-06T16:56:37.931Z,39.37
2023-03-06T16:59:42.826Z,38.63
2023-03-06T17:02:49.091Z,40.17
2023-03-06T17:05:55.732Z,42.97
2023-03-06T17:08:59.912Z,37.15
2023-03-06T17:12:03.778Z,39.40
2023-03-06T17:15:08.718Z,42.73
2023-03-06T17:18:13.414Z,40.05
2023-03-06T17:21:17.460Z,54.42
2023-03-06T17:24:21.821Z,56.72
2023-03-06T17:27:26.058Z,43.30
2023-03-06T17:30:30.610Z,31.83
2023-03-06T17:33:33.684Z,36.45
2023-03-06T17:36:39.412Z,33.75
2023-03-06T17:39:42.844Z,38.63
2023-03-06T17:42:46.689Z,24.60
2023-03-06T17:45:49.817Z,29.63
2023-03-06T17:48:54.397Z,32.72
2023-03-06T17:52:00.673Z,36.28
2023-03-06T17:55:05.889Z,36.75
2023-03-06T17:58:11.376Z,33.30
2023-03-06T18:01:19.177Z,40.40
2023-03-06T18:04:22.862Z,42.72
2023-03-06T18:07:27.636Z,60.38
2023-03-06T18:10:32.226Z,55.50
2023-03-06T18:13:38.083Z,57.37
2023-03-06T18:16:43.401Z,50.40
2023-03-06T18:19:51.583Z,61.85
2023-03-06T18:22:55.900Z,64.43
2023-03-06T18:26:24.897Z,73.93
2023-03-06T18:29:29.413Z,72.07
2023-03-06T18:32:33.601Z,63.63
2023-03-06T18:35:37.910Z,61.97
2023-03-06T18:38:44.756Z,66.22
2023-03-06T18:41:48.865Z,60.40
2023-03-06T18:44:53.001Z,55.47
2023-03-06T18:47:56.727Z,66.00
2023-03-06T18:51:11.009Z,64.35
2023-03-06T18:54:15.727Z,64.20
2023-03-06T18:57:19.119Z,61.97
2023-03-06T19:00:23.790Z,63.70
2023-03-06T19:03:27.915Z,68.30
2023-03-06T19:06:32.656Z,73.30
2023-03-06T19:09:37.628Z,70.87
2023-03-06T19:12:45.356Z,60.28
2023-03-06T19:15:50.378Z,59.23
2023-03-06T19:19:01.351Z,55.10
2023-03-06T19:22:06.228Z,54.70
2023-03-06T19:25:10.263Z,62.80
2023-03-06T19:28:13.225Z,62.72
2023-03-06T19:31:25.130Z,71.53
2023-03-06T19:34:29.279Z,76.63
2023-03-06T19:37:38.153Z,71.68
2023-03-06T19:40:41.857Z,66.40
2023-03-06T19:43:47.246Z,64.65
2023-03-06T19:46:51.543Z,69.27
2023-03-06T19:49:56.075Z,73.30
2023-03-06T19:53:01.567Z,61.60
2023-03-06T19:56:16.613Z,55.75
2023-03-06T19:59:21.596Z,58.60
2023-03-06T20:02:27.998Z,57.60
2023-03-06T20:05:32.039Z,64.10
2023-03-06T20:08:37.875Z,105.00
2023-03-06T20:11:43.577Z,96.35
2023-03-06T20:14:49.012Z,87.32
2023-03-06T20:17:54.187Z,85.57
2023-03-06T20:21:04.861Z,75.93
2023-03-06T20:24:11.750Z,78.68
2023-03-06T20:27:16.625Z,84.60
2023-03-06T20:30:21.839Z,89.13
2023-03-06T20:33:27.462Z,90.20
2023-03-06T20:36:36.080Z,95.33
2023-03-06T20:39:43.429Z,88.70
2023-03-06T20:42:47.480Z,92.03
2023-03-06T20:46:02.811Z,94.20
2023-03-06T20:49:08.335Z,95.50
2023-03-06T20:52:15.033Z,95.63
2023-03-06T20:55:18.897Z,93.70
2023-03-06T20:58:26.303Z,91.85
2023-03-06T21:01:31.825Z,90.40
2023-03-06T21:04:36.864Z,93.03
2023-03-06T21:07:40.498Z,117.57
2023-03-06T21:10:46.704Z,114.12
2023-03-06T21:13:50.748Z,74.95
2023-03-06T21:16:54.495Z,80.10
2023-03-06T21:19:58.701Z,73.80
2023-03-06T21:23:04.998Z,63.13
2023-03-06T21:26:08.833Z,61.92
2023-03-06T21:29:12.123Z,71.12
2023-03-06T21:32:15.618Z,65.80
2023-03-06T21:35:19.311Z,62.40
2023-03-06T21:38:22.505Z,68.70
2023-03-06T21:41:28.678Z,80.38
2023-03-06T21:44:32.374Z,74.18
2023-03-06T21:47:40.984Z,67.30
2023-03-06T21:50:45.911Z,71.77
2023-03-06T21:53:49.064Z,61.70
2023-03-06T21:56:52.107Z,55.78
2023-03-06T21:59:54.832Z,47.92
2023-03-06T22:02:57.924Z,48.17
2023-03-06T22:06:12.162Z,59.13
2023-03-06T22:09:16.433Z,55.93
2023-03-06T22:12:19.529Z,54.03
2023-03-06T22:15:22.398Z,47.92
2023-03-06T22:18:25.626Z,48.25
2023-03-06T22:21:28.411Z,49.00
2023-03-06T22:24:33.548Z,41.40
2023-03-06T22:27:36.754Z,41.42
2023-03-06T22:30:40.860Z,46.67
2023-03-06T22:33:44.310Z,41.88
2023-03-06T22:36:47.441Z,44.43
2023-03-06T22:39:50.380Z,41.40
2023-03-06T22:42:53.369Z,40.83
2023-03-06T22:46:02.729Z,43.05
2023-03-06T22:49:06.980Z,42.08
2023-03-06T22:52:10.099Z,41.93
2023-03-06T22:55:13.087Z,41.27
2023-03-06T22:58:16.847Z,40.25
2023-03-06T23:01:24.009Z,38.50
2023-03-06T23:04:27.622Z,33.08
2023-03-06T23:07:32.290Z,31.10
2023-03-06T23:10:40.503Z,31.07
2023-03-06T23:14:03.152Z,36.58
2023-03-06T23:17:25.534Z,33.70
2023-03-06T23:20:47.847Z,31.62
2023-03-06T23:24:10.051Z,33.93
2023-03-06T23:27:15.166Z,33.15
2023-03-06T23:30:18.542Z,32.83
2023-03-06T23:33:21.637Z,33.10
2023-03-06T23:36:25.006Z,36.22
2023-03-06T23:39:28.101Z,31.73
2023-03-06T23:42:30.974Z,36.10
2023-03-06T23:45:34.236Z,36.17
2023-03-06T23:48:38.629Z,40.00
2023-03-06T23:51:41.740Z,33.35
2023-03-06T23:54:44.557Z,35.47
2023-03-06T23:57:47.609Z,35.22
